チタ の空港の天気 - METARとTAF

チタ・カダラ空港 ( UIAA / HTA ) - ロシア チタ
飛行場実況気象(Metar)
観測時間07/29 11:00 YAKT (07/29 02:00 UTC)
風向・風速東北東 2m/s
視程10km以上
天気現象
少しの雲 雲底高度 1220m
気温19℃
湿度78%
気圧1004hPa
METARUIAA 290200Z 07002MPS 030V100 9999 FEW040 19/15 Q1004 R29/70D NOSIG RMK QFE695/0927
過去の天気等 Google飛行場航空写真 Wunderground天気予報

過去48時間のMETAR

飛行場予報(TAF)
発表時間: 7/29 08:00 YAKT (7/28 23:00 UTC)
予報対象時間: 29日9時 YAKT ~ 30日9時 YAKT
風向・風速北 3m/s
視程10km以上
全天の4割程度の積乱雲 雲底高度 910m
29日9時 YAKT ~ 29日11時 YAKT に一時的に
視程3100m
天気現象もや
全天の8割程度の雲 雲底高度 150m
29日12時 YAKT ~ 29日18時 YAKT に一時的に
天気現象弱い雷雨
TAF UIAA 282300Z 2900/2924 36003MPS 9999 SCT030CB
TEMPO 2900/2902 3100 BR BKN005
TEMPO 2903/2909 -TSRA